sensor_id;sensor_type;location;lat;lon;timestamp;P1;durP1;ratioP1;P2;durP2;ratioP2
46363;SDS011;32071;49.036;9.344;2023-02-25T00:00:04;15.23;;;7.00;;
46363;SDS011;32071;49.036;9.344;2023-02-25T00:02:44;14.93;;;6.93;;
46363;SDS011;32071;49.036;9.344;2023-02-25T00:05:10;9.90;;;6.23;;
46363;SDS011;32071;49.036;9.344;2023-02-25T00:07:36;9.97;;;5.97;;
46363;SDS011;32071;49.036;9.344;2023-02-25T00:10:02;13.27;;;7.03;;
46363;SDS011;32071;49.036;9.344;2023-02-25T00:12:28;21.40;;;7.33;;
46363;SDS011;32071;49.036;9.344;2023-02-25T00:14:54;10.00;;;5.80;;
46363;SDS011;32071;49.036;9.344;2023-02-25T00:17:20;13.20;;;6.77;;
46363;SDS011;32071;49.036;9.344;2023-02-25T00:19:45;14.60;;;6.50;;
46363;SDS011;32071;49.036;9.344;2023-02-25T00:22:11;9.43;;;6.37;;
46363;SDS011;32071;49.036;9.344;2023-02-25T00:24:36;12.93;;;6.60;;
46363;SDS011;32071;49.036;9.344;2023-02-25T00:27:02;10.53;;;5.90;;
46363;SDS011;32071;49.036;9.344;2023-02-25T00:29:28;11.33;;;5.83;;
46363;SDS011;32071;49.036;9.344;2023-02-25T00:31:54;9.33;;;6.00;;
46363;SDS011;32071;49.036;9.344;2023-02-25T00:34:20;16.40;;;6.77;;
46363;SDS011;32071;49.036;9.344;2023-02-25T00:36:45;10.57;;;5.63;;
46363;SDS011;32071;49.036;9.344;2023-02-25T00:39:12;14.83;;;6.33;;
46363;SDS011;32071;49.036;9.344;2023-02-25T00:41:37;9.87;;;5.27;;
46363;SDS011;32071;49.036;9.344;2023-02-25T00:44:03;11.87;;;5.30;;
46363;SDS011;32071;49.036;9.344;2023-02-25T00:46:30;9.50;;;6.00;;
46363;SDS011;32071;49.036;9.344;2023-02-25T00:48:56;12.47;;;6.47;;
46363;SDS011;32071;49.036;9.344;2023-02-25T00:51:24;9.70;;;5.50;;
46363;SDS011;32071;49.036;9.344;2023-02-25T00:53:51;15.50;;;6.30;;
46363;SDS011;32071;49.036;9.344;2023-02-25T00:56:18;8.67;;;5.60;;
46363;SDS011;32071;49.036;9.344;2023-02-25T00:58:44;11.27;;;5.70;;
46363;SDS011;32071;49.036;9.344;2023-02-25T01:01:18;12.40;;;5.30;;
46363;SDS011;32071;49.036;9.344;2023-02-25T01:03:49;11.60;;;5.40;;
46363;SDS011;32071;49.036;9.344;2023-02-25T01:06:16;10.03;;;5.50;;
46363;SDS011;32071;49.036;9.344;2023-02-25T01:08:42;8.57;;;5.20;;
46363;SDS011;32071;49.036;9.344;2023-02-25T01:11:11;11.53;;;5.40;;
46363;SDS011;32071;49.036;9.344;2023-02-25T01:13:39;8.60;;;5.30;;
46363;SDS011;32071;49.036;9.344;2023-02-25T01:16:12;9.60;;;5.20;;
46363;SDS011;32071;49.036;9.344;2023-02-25T01:18:39;13.20;;;6.07;;
46363;SDS011;32071;49.036;9.344;2023-02-25T01:21:05;11.03;;;5.07;;
46363;SDS011;32071;49.036;9.344;2023-02-25T01:23:31;7.10;;;4.93;;
46363;SDS011;32071;49.036;9.344;2023-02-25T01:25:56;8.10;;;4.63;;
46363;SDS011;32071;49.036;9.344;2023-02-25T01:28:22;10.10;;;5.63;;
46363;SDS011;32071;49.036;9.344;2023-02-25T01:30:47;11.53;;;5.50;;
46363;SDS011;32071;49.036;9.344;2023-02-25T01:33:13;9.53;;;4.60;;
46363;SDS011;32071;49.036;9.344;2023-02-25T01:35:38;6.67;;;4.23;;
46363;SDS011;32071;49.036;9.344;2023-02-25T01:38:04;8.83;;;4.70;;
46363;SDS011;32071;49.036;9.344;2023-02-25T01:40:30;7.90;;;4.67;;
46363;SDS011;32071;49.036;9.344;2023-02-25T01:42:55;6.53;;;3.70;;
46363;SDS011;32071;49.036;9.344;2023-02-25T01:45:23;7.40;;;3.00;;
46363;SDS011;32071;49.036;9.344;2023-02-25T01:48:00;6.27;;;4.10;;
46363;SDS011;32071;49.036;9.344;2023-02-25T01:50:43;8.53;;;4.30;;
46363;SDS011;32071;49.036;9.344;2023-02-25T01:53:11;7.00;;;4.17;;
46363;SDS011;32071;49.036;9.344;2023-02-25T01:55:39;10.33;;;3.27;;
46363;SDS011;32071;49.036;9.344;2023-02-25T01:58:05;5.40;;;3.20;;
46363;SDS011;32071;49.036;9.344;2023-02-25T02:00:33;5.63;;;3.37;;
46363;SDS011;32071;49.036;9.344;2023-02-25T02:03:00;4.93;;;3.20;;
46363;SDS011;32071;49.036;9.344;2023-02-25T02:05:30;4.70;;;3.00;;
46363;SDS011;32071;49.036;9.344;2023-02-25T02:08:09;7.03;;;3.30;;
46363;SDS011;32071;49.036;9.344;2023-02-25T02:10:35;5.50;;;3.10;;
46363;SDS011;32071;49.036;9.344;2023-02-25T02:13:01;6.00;;;3.50;;
46363;SDS011;32071;49.036;9.344;2023-02-25T02:15:26;6.80;;;3.70;;
46363;SDS011;32071;49.036;9.344;2023-02-25T02:17:58;6.97;;;3.20;;
46363;SDS011;32071;49.036;9.344;2023-02-25T02:20:26;6.17;;;4.10;;
46363;SDS011;32071;49.036;9.344;2023-02-25T02:29:01;10.30;;;3.47;;
46363;SDS011;32071;49.036;9.344;2023-02-25T02:31:39;5.73;;;3.70;;
46363;SDS011;32071;49.036;9.344;2023-02-25T02:34:15;8.43;;;3.23;;
46363;SDS011;32071;49.036;9.344;2023-02-25T02:42:44;5.33;;;3.63;;
46363;SDS011;32071;49.036;9.344;2023-02-25T02:48:17;5.90;;;3.80;;
46363;SDS011;32071;49.036;9.344;2023-02-25T02:50:53;7.10;;;4.00;;
46363;SDS011;32071;49.036;9.344;2023-02-25T02:53:28;7.20;;;3.17;;
46363;SDS011;32071;49.036;9.344;2023-02-25T02:56:00;8.17;;;3.23;;
46363;SDS011;32071;49.036;9.344;2023-02-25T02:58:30;9.13;;;3.37;;
46363;SDS011;32071;49.036;9.344;2023-02-25T03:01:11;8.03;;;3.73;;
46363;SDS011;32071;49.036;9.344;2023-02-25T03:03:46;6.77;;;2.90;;
46363;SDS011;32071;49.036;9.344;2023-02-25T03:06:20;8.03;;;3.63;;
46363;SDS011;32071;49.036;9.344;2023-02-25T03:08:52;8.37;;;4.03;;
46363;SDS011;32071;49.036;9.344;2023-02-25T03:11:38;4.30;;;2.90;;
46363;SDS011;32071;49.036;9.344;2023-02-25T03:14:03;6.60;;;3.17;;
46363;SDS011;32071;49.036;9.344;2023-02-25T03:16:32;13.50;;;4.20;;
46363;SDS011;32071;49.036;9.344;2023-02-25T03:19:13;4.87;;;3.73;;
46363;SDS011;32071;49.036;9.344;2023-02-25T03:21:51;4.83;;;3.10;;
46363;SDS011;32071;49.036;9.344;2023-02-25T03:24:22;6.40;;;4.10;;
46363;SDS011;32071;49.036;9.344;2023-02-25T03:26:53;9.60;;;3.40;;
46363;SDS011;32071;49.036;9.344;2023-02-25T03:29:20;6.77;;;3.30;;
46363;SDS011;32071;49.036;9.344;2023-02-25T03:34:16;8.23;;;3.27;;
46363;SDS011;32071;49.036;9.344;2023-02-25T03:36:46;9.53;;;2.60;;
46363;SDS011;32071;49.036;9.344;2023-02-25T03:39:18;7.80;;;3.37;;
46363;SDS011;32071;49.036;9.344;2023-02-25T03:41:50;4.43;;;2.93;;
46363;SDS011;32071;49.036;9.344;2023-02-25T03:44:19;6.53;;;3.53;;
46363;SDS011;32071;49.036;9.344;2023-02-25T03:46:49;10.27;;;3.80;;
46363;SDS011;32071;49.036;9.344;2023-02-25T03:49:22;6.53;;;3.07;;
46363;SDS011;32071;49.036;9.344;2023-02-25T03:51:52;7.10;;;3.50;;
46363;SDS011;32071;49.036;9.344;2023-02-25T03:54:20;10.07;;;3.17;;
46363;SDS011;32071;49.036;9.344;2023-02-25T03:56:46;5.53;;;3.10;;
46363;SDS011;32071;49.036;9.344;2023-02-25T03:59:14;10.90;;;3.40;;
46363;SDS011;32071;49.036;9.344;2023-02-25T04:01:42;6.83;;;3.53;;
46363;SDS011;32071;49.036;9.344;2023-02-25T04:04:12;6.60;;;3.60;;
46363;SDS011;32071;49.036;9.344;2023-02-25T04:06:37;8.50;;;3.87;;
46363;SDS011;32071;49.036;9.344;2023-02-25T04:09:03;8.97;;;3.70;;
46363;SDS011;32071;49.036;9.344;2023-02-25T04:11:30;9.03;;;3.73;;
46363;SDS011;32071;49.036;9.344;2023-02-25T04:13:56;7.27;;;3.50;;
46363;SDS011;32071;49.036;9.344;2023-02-25T04:16:21;9.30;;;4.10;;
46363;SDS011;32071;49.036;9.344;2023-02-25T04:18:47;4.90;;;3.30;;
46363;SDS011;32071;49.036;9.344;2023-02-25T04:21:22;12.50;;;3.93;;
46363;SDS011;32071;49.036;9.344;2023-02-25T04:23:57;5.97;;;3.57;;
46363;SDS011;32071;49.036;9.344;2023-02-25T04:26:23;8.57;;;3.60;;
46363;SDS011;32071;49.036;9.344;2023-02-25T04:28:48;7.53;;;3.70;;
46363;SDS011;32071;49.036;9.344;2023-02-25T04:31:14;8.03;;;3.63;;
46363;SDS011;32071;49.036;9.344;2023-02-25T04:33:40;8.70;;;3.33;;
46363;SDS011;32071;49.036;9.344;2023-02-25T04:36:09;8.37;;;4.53;;
46363;SDS011;32071;49.036;9.344;2023-02-25T04:38:50;10.20;;;3.80;;
46363;SDS011;32071;49.036;9.344;2023-02-25T04:41:16;7.87;;;3.63;;
46363;SDS011;32071;49.036;9.344;2023-02-25T04:43:41;8.90;;;4.13;;
46363;SDS011;32071;49.036;9.344;2023-02-25T04:46:09;7.50;;;3.50;;
46363;SDS011;32071;49.036;9.344;2023-02-25T04:48:35;11.73;;;4.30;;
46363;SDS011;32071;49.036;9.344;2023-02-25T04:51:01;7.20;;;3.60;;
46363;SDS011;32071;49.036;9.344;2023-02-25T04:53:27;6.07;;;3.50;;
46363;SDS011;32071;49.036;9.344;2023-02-25T04:55:53;8.33;;;3.73;;
46363;SDS011;32071;49.036;9.344;2023-02-25T04:58:18;8.20;;;3.20;;
46363;SDS011;32071;49.036;9.344;2023-02-25T05:00:44;5.63;;;3.13;;
46363;SDS011;32071;49.036;9.344;2023-02-25T05:03:13;6.63;;;3.70;;
46363;SDS011;32071;49.036;9.344;2023-02-25T05:05:39;17.40;;;8.10;;
46363;SDS011;32071;49.036;9.344;2023-02-25T05:08:05;11.60;;;5.50;;
46363;SDS011;32071;49.036;9.344;2023-02-25T05:10:31;14.20;;;7.07;;
46363;SDS011;32071;49.036;9.344;2023-02-25T05:12:56;9.13;;;4.40;;
46363;SDS011;32071;49.036;9.344;2023-02-25T05:15:22;11.90;;;4.57;;
46363;SDS011;32071;49.036;9.344;2023-02-25T05:17:47;8.37;;;4.93;;
46363;SDS011;32071;49.036;9.344;2023-02-25T05:20:13;7.63;;;3.23;;
46363;SDS011;32071;49.036;9.344;2023-02-25T05:22:39;6.13;;;3.17;;
46363;SDS011;32071;49.036;9.344;2023-02-25T05:25:06;5.40;;;2.97;;
46363;SDS011;32071;49.036;9.344;2023-02-25T05:27:33;5.10;;;2.70;;
46363;SDS011;32071;49.036;9.344;2023-02-25T05:29:58;10.53;;;3.40;;
46363;SDS011;32071;49.036;9.344;2023-02-25T05:32:24;6.30;;;3.07;;
46363;SDS011;32071;49.036;9.344;2023-02-25T05:34:51;8.73;;;2.40;;
46363;SDS011;32071;49.036;9.344;2023-02-25T05:37:16;5.47;;;2.37;;
46363;SDS011;32071;49.036;9.344;2023-02-25T05:39:42;5.40;;;2.57;;
46363;SDS011;32071;49.036;9.344;2023-02-25T05:42:07;11.03;;;2.47;;
46363;SDS011;32071;49.036;9.344;2023-02-25T05:44:33;4.00;;;2.10;;
46363;SDS011;32071;49.036;9.344;2023-02-25T05:46:59;5.23;;;2.07;;
46363;SDS011;32071;49.036;9.344;2023-02-25T05:49:24;5.10;;;3.20;;
46363;SDS011;32071;49.036;9.344;2023-02-25T05:51:50;3.20;;;1.77;;
46363;SDS011;32071;49.036;9.344;2023-02-25T05:54:15;3.50;;;1.93;;
46363;SDS011;32071;49.036;9.344;2023-02-25T05:56:41;3.57;;;2.23;;
46363;SDS011;32071;49.036;9.344;2023-02-25T05:59:09;5.20;;;2.37;;
46363;SDS011;32071;49.036;9.344;2023-02-25T06:01:35;3.93;;;2.20;;
46363;SDS011;32071;49.036;9.344;2023-02-25T06:04:01;8.97;;;3.07;;
46363;SDS011;32071;49.036;9.344;2023-02-25T06:06:27;3.83;;;3.20;;
46363;SDS011;32071;49.036;9.344;2023-02-25T06:08:54;5.00;;;3.50;;
46363;SDS011;32071;49.036;9.344;2023-02-25T06:11:24;4.70;;;2.33;;
46363;SDS011;32071;49.036;9.344;2023-02-25T06:13:52;5.07;;;2.47;;
46363;SDS011;32071;49.036;9.344;2023-02-25T06:16:19;4.80;;;1.63;;
46363;SDS011;32071;49.036;9.344;2023-02-25T06:18:45;3.17;;;2.10;;
46363;SDS011;32071;49.036;9.344;2023-02-25T06:21:12;7.60;;;2.37;;
46363;SDS011;32071;49.036;9.344;2023-02-25T06:23:39;5.10;;;2.50;;
46363;SDS011;32071;49.036;9.344;2023-02-25T06:26:07;2.57;;;1.30;;
46363;SDS011;32071;49.036;9.344;2023-02-25T06:28:35;2.90;;;1.83;;
46363;SDS011;32071;49.036;9.344;2023-02-25T06:31:01;5.43;;;2.87;;
46363;SDS011;32071;49.036;9.344;2023-02-25T06:33:29;4.13;;;2.60;;
46363;SDS011;32071;49.036;9.344;2023-02-25T06:35:55;6.20;;;2.80;;
46363;SDS011;32071;49.036;9.344;2023-02-25T06:38:21;8.27;;;4.50;;
46363;SDS011;32071;49.036;9.344;2023-02-25T06:40:47;7.33;;;3.97;;
46363;SDS011;32071;49.036;9.344;2023-02-25T06:43:14;5.53;;;3.30;;
46363;SDS011;32071;49.036;9.344;2023-02-25T06:45:40;6.47;;;3.67;;
46363;SDS011;32071;49.036;9.344;2023-02-25T06:48:06;9.93;;;2.83;;
46363;SDS011;32071;49.036;9.344;2023-02-25T06:50:32;4.40;;;2.40;;
46363;SDS011;32071;49.036;9.344;2023-02-25T06:52:58;10.53;;;2.30;;
46363;SDS011;32071;49.036;9.344;2023-02-25T06:55:23;6.47;;;2.70;;
46363;SDS011;32071;49.036;9.344;2023-02-25T06:57:49;6.50;;;3.23;;
46363;SDS011;32071;49.036;9.344;2023-02-25T07:00:15;9.37;;;2.60;;
46363;SDS011;32071;49.036;9.344;2023-02-25T07:02:41;6.23;;;2.20;;
46363;SDS011;32071;49.036;9.344;2023-02-25T07:05:06;5.67;;;1.80;;
46363;SDS011;32071;49.036;9.344;2023-02-25T07:07:32;3.70;;;1.87;;
46363;SDS011;32071;49.036;9.344;2023-02-25T07:09:58;3.40;;;1.83;;
46363;SDS011;32071;49.036;9.344;2023-02-25T07:12:24;6.17;;;1.80;;
46363;SDS011;32071;49.036;9.344;2023-02-25T07:14:49;3.53;;;1.40;;
46363;SDS011;32071;49.036;9.344;2023-02-25T07:17:15;3.40;;;1.30;;
46363;SDS011;32071;49.036;9.344;2023-02-25T07:19:41;2.70;;;1.67;;
46363;SDS011;32071;49.036;9.344;2023-02-25T07:22:06;1.93;;;1.30;;
46363;SDS011;32071;49.036;9.344;2023-02-25T07:24:34;6.20;;;1.60;;
46363;SDS011;32071;49.036;9.344;2023-02-25T07:27:00;5.30;;;2.00;;
46363;SDS011;32071;49.036;9.344;2023-02-25T07:29:25;5.07;;;2.10;;
46363;SDS011;32071;49.036;9.344;2023-02-25T07:31:51;9.83;;;2.30;;
46363;SDS011;32071;49.036;9.344;2023-02-25T07:34:16;4.67;;;1.83;;
46363;SDS011;32071;49.036;9.344;2023-02-25T07:36:42;3.10;;;1.80;;
46363;SDS011;32071;49.036;9.344;2023-02-25T07:39:08;9.30;;;2.77;;
46363;SDS011;32071;49.036;9.344;2023-02-25T07:41:35;2.97;;;2.00;;
46363;SDS011;32071;49.036;9.344;2023-02-25T07:44:02;2.63;;;1.67;;
46363;SDS011;32071;49.036;9.344;2023-02-25T07:46:28;3.33;;;1.87;;
46363;SDS011;32071;49.036;9.344;2023-02-25T07:48:54;3.33;;;1.73;;
46363;SDS011;32071;49.036;9.344;2023-02-25T07:51:20;3.63;;;1.63;;
46363;SDS011;32071;49.036;9.344;2023-02-25T07:53:48;4.53;;;1.77;;
46363;SDS011;32071;49.036;9.344;2023-02-25T07:56:15;5.37;;;1.50;;
46363;SDS011;32071;49.036;9.344;2023-02-25T07:58:43;3.70;;;2.03;;
46363;SDS011;32071;49.036;9.344;2023-02-25T08:01:19;3.13;;;2.03;;
46363;SDS011;32071;49.036;9.344;2023-02-25T08:03:50;4.50;;;1.70;;
46363;SDS011;32071;49.036;9.344;2023-02-25T08:06:17;2.00;;;1.70;;
46363;SDS011;32071;49.036;9.344;2023-02-25T08:08:44;2.97;;;1.67;;
46363;SDS011;32071;49.036;9.344;2023-02-25T08:11:11;8.40;;;1.90;;
46363;SDS011;32071;49.036;9.344;2023-02-25T08:13:38;4.00;;;1.90;;
46363;SDS011;32071;49.036;9.344;2023-02-25T08:16:04;7.30;;;1.33;;
46363;SDS011;32071;49.036;9.344;2023-02-25T08:18:31;4.30;;;1.80;;
46363;SDS011;32071;49.036;9.344;2023-02-25T08:20:56;1.53;;;1.40;;
46363;SDS011;32071;49.036;9.344;2023-02-25T08:23:24;1.67;;;1.30;;
46363;SDS011;32071;49.036;9.344;2023-02-25T08:25:54;4.20;;;1.90;;
46363;SDS011;32071;49.036;9.344;2023-02-25T08:28:21;3.80;;;1.30;;
46363;SDS011;32071;49.036;9.344;2023-02-25T08:30:47;6.10;;;1.83;;
46363;SDS011;32071;49.036;9.344;2023-02-25T08:33:13;2.83;;;1.20;;
46363;SDS011;32071;49.036;9.344;2023-02-25T08:35:39;8.30;;;1.20;;
46363;SDS011;32071;49.036;9.344;2023-02-25T08:38:05;5.10;;;1.50;;
46363;SDS011;32071;49.036;9.344;2023-02-25T08:40:31;3.10;;;1.43;;
46363;SDS011;32071;49.036;9.344;2023-02-25T08:42:56;6.77;;;1.40;;
46363;SDS011;32071;49.036;9.344;2023-02-25T08:45:22;1.67;;;1.00;;
46363;SDS011;32071;49.036;9.344;2023-02-25T08:47:48;5.97;;;1.57;;
46363;SDS011;32071;49.036;9.344;2023-02-25T08:50:13;4.00;;;2.20;;
46363;SDS011;32071;49.036;9.344;2023-02-25T08:52:41;3.63;;;1.50;;
46363;SDS011;32071;49.036;9.344;2023-02-25T08:55:08;2.93;;;1.40;;
46363;SDS011;32071;49.036;9.344;2023-02-25T08:57:35;2.77;;;1.73;;
46363;SDS011;32071;49.036;9.344;2023-02-25T09:00:01;2.20;;;1.60;;
46363;SDS011;32071;49.036;9.344;2023-02-25T09:02:28;5.40;;;2.30;;
46363;SDS011;32071;49.036;9.344;2023-02-25T09:04:54;3.00;;;1.20;;
46363;SDS011;32071;49.036;9.344;2023-02-25T09:07:20;4.43;;;1.67;;
46363;SDS011;32071;49.036;9.344;2023-02-25T09:09:46;4.33;;;1.70;;
46363;SDS011;32071;49.036;9.344;2023-02-25T09:12:11;4.27;;;1.80;;
46363;SDS011;32071;49.036;9.344;2023-02-25T09:14:37;1.97;;;1.10;;
46363;SDS011;32071;49.036;9.344;2023-02-25T09:17:03;0.93;;;0.90;;
46363;SDS011;32071;49.036;9.344;2023-02-25T09:19:30;4.53;;;1.17;;
46363;SDS011;32071;49.036;9.344;2023-02-25T09:21:56;2.23;;;1.07;;
46363;SDS011;32071;49.036;9.344;2023-02-25T09:24:22;3.87;;;1.30;;
46363;SDS011;32071;49.036;9.344;2023-02-25T09:26:48;2.10;;;1.20;;
46363;SDS011;32071;49.036;9.344;2023-02-25T09:29:13;5.33;;;1.30;;
46363;SDS011;32071;49.036;9.344;2023-02-25T09:31:39;2.80;;;1.13;;
46363;SDS011;32071;49.036;9.344;2023-02-25T09:34:07;4.60;;;1.40;;
46363;SDS011;32071;49.036;9.344;2023-02-25T09:36:33;5.30;;;1.77;;
46363;SDS011;32071;49.036;9.344;2023-02-25T09:38:59;3.13;;;1.87;;
46363;SDS011;32071;49.036;9.344;2023-02-25T09:41:30;3.70;;;1.70;;
46363;SDS011;32071;49.036;9.344;2023-02-25T09:46:46;3.70;;;1.40;;
46363;SDS011;32071;49.036;9.344;2023-02-25T09:49:19;3.63;;;1.20;;
46363;SDS011;32071;49.036;9.344;2023-02-25T09:51:58;2.67;;;1.40;;
46363;SDS011;32071;49.036;9.344;2023-02-25T09:54:31;3.17;;;1.53;;
46363;SDS011;32071;49.036;9.344;2023-02-25T09:57:01;10.00;;;2.30;;
46363;SDS011;32071;49.036;9.344;2023-02-25T09:59:30;2.80;;;1.40;;
46363;SDS011;32071;49.036;9.344;2023-02-25T10:02:18;3.43;;;1.60;;
46363;SDS011;32071;49.036;9.344;2023-02-25T10:16:01;2.27;;;1.63;;
46363;SDS011;32071;49.036;9.344;2023-02-25T10:21:40;1.90;;;1.20;;
46363;SDS011;32071;49.036;9.344;2023-02-25T10:26:34;1.60;;;1.30;;
46363;SDS011;32071;49.036;9.344;2023-02-25T10:29:04;5.77;;;2.77;;
46363;SDS011;32071;49.036;9.344;2023-02-25T10:31:31;2.90;;;2.57;;
46363;SDS011;32071;49.036;9.344;2023-02-25T10:33:58;3.43;;;2.87;;
46363;SDS011;32071;49.036;9.344;2023-02-25T10:36:45;7.47;;;4.63;;
46363;SDS011;32071;49.036;9.344;2023-02-25T10:39:16;18.07;;;9.57;;
46363;SDS011;32071;49.036;9.344;2023-02-25T10:41:42;10.93;;;6.40;;
46363;SDS011;32071;49.036;9.344;2023-02-25T10:44:08;9.97;;;5.77;;
46363;SDS011;32071;49.036;9.344;2023-02-25T10:46:37;9.83;;;3.47;;
46363;SDS011;32071;49.036;9.344;2023-02-25T10:49:17;4.20;;;2.27;;
46363;SDS011;32071;49.036;9.344;2023-02-25T10:54:45;6.37;;;2.33;;
46363;SDS011;32071;49.036;9.344;2023-02-25T10:57:16;7.23;;;3.73;;
46363;SDS011;32071;49.036;9.344;2023-02-25T11:00:05;4.83;;;2.53;;
46363;SDS011;32071;49.036;9.344;2023-02-25T11:02:39;2.80;;;1.97;;
46363;SDS011;32071;49.036;9.344;2023-02-25T11:05:27;6.00;;;2.33;;
46363;SDS011;32071;49.036;9.344;2023-02-25T11:07:55;7.00;;;3.23;;
46363;SDS011;32071;49.036;9.344;2023-02-25T11:10:21;3.10;;;1.90;;
46363;SDS011;32071;49.036;9.344;2023-02-25T11:12:54;9.40;;;2.47;;
46363;SDS011;32071;49.036;9.344;2023-02-25T11:15:35;4.60;;;1.87;;
46363;SDS011;32071;49.036;9.344;2023-02-25T11:18:04;5.20;;;2.57;;
46363;SDS011;32071;49.036;9.344;2023-02-25T11:20:51;4.37;;;2.03;;
46363;SDS011;32071;49.036;9.344;2023-02-25T11:23:21;4.10;;;2.30;;
46363;SDS011;32071;49.036;9.344;2023-02-25T11:25:53;4.30;;;2.23;;
46363;SDS011;32071;49.036;9.344;2023-02-25T11:31:04;6.43;;;3.00;;
46363;SDS011;32071;49.036;9.344;2023-02-25T11:33:41;5.23;;;1.97;;
46363;SDS011;32071;49.036;9.344;2023-02-25T11:36:10;6.00;;;2.40;;
46363;SDS011;32071;49.036;9.344;2023-02-25T11:38:37;3.77;;;2.00;;
46363;SDS011;32071;49.036;9.344;2023-02-25T11:41:16;5.53;;;2.23;;
46363;SDS011;32071;49.036;9.344;2023-02-25T11:43:45;4.43;;;1.80;;
46363;SDS011;32071;49.036;9.344;2023-02-25T11:46:20;3.10;;;2.03;;
46363;SDS011;32071;49.036;9.344;2023-02-25T11:48:49;6.67;;;2.07;;
46363;SDS011;32071;49.036;9.344;2023-02-25T11:53:59;5.60;;;2.90;;
46363;SDS011;32071;49.036;9.344;2023-02-25T11:56:48;5.90;;;3.03;;
46363;SDS011;32071;49.036;9.344;2023-02-25T12:29:14;4.43;;;2.37;;
46363;SDS011;32071;49.036;9.344;2023-02-25T12:31:53;5.73;;;2.93;;
46363;SDS011;32071;49.036;9.344;2023-02-25T12:42:59;4.10;;;2.37;;
46363;SDS011;32071;49.036;9.344;2023-02-25T12:45:35;4.13;;;2.67;;
46363;SDS011;32071;49.036;9.344;2023-02-25T12:48:30;7.43;;;2.10;;
46363;SDS011;32071;49.036;9.344;2023-02-25T12:51:31;6.33;;;2.03;;
46363;SDS011;32071;49.036;9.344;2023-02-25T13:05:23;4.53;;;2.00;;
46363;SDS011;32071;49.036;9.344;2023-02-25T13:08:24;4.70;;;2.27;;
46363;SDS011;32071;49.036;9.344;2023-02-25T13:19:30;4.13;;;2.57;;
46363;SDS011;32071;49.036;9.344;2023-02-25T13:22:16;6.67;;;2.80;;
46363;SDS011;32071;49.036;9.344;2023-02-25T13:30:34;2.63;;;1.50;;
46363;SDS011;32071;49.036;9.344;2023-02-25T13:38:22;5.13;;;2.17;;
46363;SDS011;32071;49.036;9.344;2023-02-25T13:44:20;5.10;;;2.00;;
46363;SDS011;32071;49.036;9.344;2023-02-25T13:47:18;5.60;;;2.30;;
46363;SDS011;32071;49.036;9.344;2023-02-25T13:50:12;4.50;;;1.90;;
46363;SDS011;32071;49.036;9.344;2023-02-25T14:11:57;7.93;;;2.40;;
46363;SDS011;32071;49.036;9.344;2023-02-25T14:14:51;5.10;;;2.33;;
46363;SDS011;32071;49.036;9.344;2023-02-25T14:40:05;7.33;;;2.70;;
46363;SDS011;32071;49.036;9.344;2023-02-25T14:42:41;3.23;;;1.50;;
46363;SDS011;32071;49.036;9.344;2023-02-25T14:45:19;4.00;;;2.47;;
46363;SDS011;32071;49.036;9.344;2023-02-25T14:48:03;5.20;;;2.40;;
46363;SDS011;32071;49.036;9.344;2023-02-25T14:50:41;6.40;;;2.33;;
46363;SDS011;32071;49.036;9.344;2023-02-25T14:53:17;6.03;;;1.90;;
46363;SDS011;32071;49.036;9.344;2023-02-25T15:02:05;2.97;;;2.30;;
46363;SDS011;32071;49.036;9.344;2023-02-25T15:04:58;4.80;;;2.47;;
46363;SDS011;32071;49.036;9.344;2023-02-25T15:12:34;3.07;;;2.17;;
46363;SDS011;32071;49.036;9.344;2023-02-25T15:20:45;6.27;;;2.70;;
46363;SDS011;32071;49.036;9.344;2023-02-25T15:23:14;3.77;;;2.57;;
46363;SDS011;32071;49.036;9.344;2023-02-25T15:26:45;5.13;;;2.80;;
46363;SDS011;32071;49.036;9.344;2023-02-25T15:28:45;2.83;;;2.20;;
46363;SDS011;32071;49.036;9.344;2023-02-25T15:36:45;3.30;;;1.80;;
46363;SDS011;32071;49.036;9.344;2023-02-25T15:42:37;8.30;;;2.77;;
46363;SDS011;32071;49.036;9.344;2023-02-25T15:48:18;4.40;;;2.43;;
46363;SDS011;32071;49.036;9.344;2023-02-25T15:58:37;6.87;;;2.20;;
46363;SDS011;32071;49.036;9.344;2023-02-25T16:01:28;1.80;;;1.50;;
46363;SDS011;32071;49.036;9.344;2023-02-25T16:04:06;2.60;;;2.10;;
46363;SDS011;32071;49.036;9.344;2023-02-25T16:07:05;3.07;;;2.03;;
46363;SDS011;32071;49.036;9.344;2023-02-25T16:09:31;4.93;;;2.40;;
46363;SDS011;32071;49.036;9.344;2023-02-25T16:11:57;5.17;;;1.90;;
46363;SDS011;32071;49.036;9.344;2023-02-25T16:14:30;2.77;;;2.00;;
46363;SDS011;32071;49.036;9.344;2023-02-25T16:19:27;4.23;;;2.07;;
46363;SDS011;32071;49.036;9.344;2023-02-25T16:21:58;5.70;;;2.03;;
46363;SDS011;32071;49.036;9.344;2023-02-25T16:24:32;6.93;;;2.20;;
46363;SDS011;32071;49.036;9.344;2023-02-25T16:27:03;8.03;;;2.50;;
46363;SDS011;32071;49.036;9.344;2023-02-25T16:29:59;5.50;;;2.20;;
46363;SDS011;32071;49.036;9.344;2023-02-25T16:38:42;5.10;;;3.17;;
46363;SDS011;32071;49.036;9.344;2023-02-25T16:41:30;4.53;;;2.47;;
46363;SDS011;32071;49.036;9.344;2023-02-25T16:43:56;3.90;;;2.83;;
46363;SDS011;32071;49.036;9.344;2023-02-25T16:46:26;4.60;;;3.40;;
46363;SDS011;32071;49.036;9.344;2023-02-25T16:48:59;6.43;;;3.10;;
46363;SDS011;32071;49.036;9.344;2023-02-25T16:51:39;13.87;;;8.87;;
46363;SDS011;32071;49.036;9.344;2023-02-25T16:54:12;6.53;;;3.80;;
46363;SDS011;32071;49.036;9.344;2023-02-25T16:56:44;2.93;;;2.33;;
46363;SDS011;32071;49.036;9.344;2023-02-25T17:01:37;1.83;;;1.33;;
46363;SDS011;32071;49.036;9.344;2023-02-25T17:07:07;5.93;;;4.63;;
46363;SDS011;32071;49.036;9.344;2023-02-25T17:12:14;5.90;;;4.70;;
46363;SDS011;32071;49.036;9.344;2023-02-25T17:14:47;2.70;;;1.07;;
46363;SDS011;32071;49.036;9.344;2023-02-25T17:17:36;5.50;;;3.63;;
46363;SDS011;32071;49.036;9.344;2023-02-25T17:20:02;5.97;;;3.90;;
46363;SDS011;32071;49.036;9.344;2023-02-25T17:22:33;1.83;;;1.67;;
46363;SDS011;32071;49.036;9.344;2023-02-25T17:25:01;3.40;;;1.20;;
46363;SDS011;32071;49.036;9.344;2023-02-25T17:27:28;2.60;;;1.30;;
46363;SDS011;32071;49.036;9.344;2023-02-25T17:29:54;2.87;;;1.60;;
46363;SDS011;32071;49.036;9.344;2023-02-25T17:32:24;1.97;;;1.27;;
46363;SDS011;32071;49.036;9.344;2023-02-25T17:34:52;2.40;;;1.53;;
46363;SDS011;32071;49.036;9.344;2023-02-25T17:37:20;3.33;;;1.83;;
46363;SDS011;32071;49.036;9.344;2023-02-25T17:39:50;1.73;;;1.63;;
46363;SDS011;32071;49.036;9.344;2023-02-25T17:42:49;4.70;;;2.10;;
46363;SDS011;32071;49.036;9.344;2023-02-25T17:48:13;21.97;;;12.27;;
46363;SDS011;32071;49.036;9.344;2023-02-25T17:50:40;10.87;;;8.43;;
46363;SDS011;32071;49.036;9.344;2023-02-25T17:53:12;12.70;;;9.00;;
46363;SDS011;32071;49.036;9.344;2023-02-25T17:55:47;11.03;;;7.07;;
46363;SDS011;32071;49.036;9.344;2023-02-25T17:58:18;13.50;;;10.50;;
46363;SDS011;32071;49.036;9.344;2023-02-25T18:00:57;16.50;;;11.63;;
46363;SDS011;32071;49.036;9.344;2023-02-25T18:03:25;27.50;;;20.77;;
46363;SDS011;32071;49.036;9.344;2023-02-25T18:05:58;15.13;;;11.23;;
46363;SDS011;32071;49.036;9.344;2023-02-25T18:08:29;8.43;;;6.50;;
46363;SDS011;32071;49.036;9.344;2023-02-25T18:11:26;10.03;;;7.40;;
46363;SDS011;32071;49.036;9.344;2023-02-25T18:13:57;9.23;;;5.90;;
46363;SDS011;32071;49.036;9.344;2023-02-25T18:16:31;9.93;;;6.70;;
46363;SDS011;32071;49.036;9.344;2023-02-25T18:19:06;12.10;;;6.37;;
46363;SDS011;32071;49.036;9.344;2023-02-25T18:21:37;7.70;;;6.10;;
46363;SDS011;32071;49.036;9.344;2023-02-25T18:24:06;8.93;;;5.17;;
46363;SDS011;32071;49.036;9.344;2023-02-25T18:26:32;6.50;;;4.47;;
46363;SDS011;32071;49.036;9.344;2023-02-25T18:28:58;11.00;;;7.57;;
46363;SDS011;32071;49.036;9.344;2023-02-25T18:31:24;14.87;;;7.73;;
46363;SDS011;32071;49.036;9.344;2023-02-25T18:33:50;7.90;;;4.93;;
46363;SDS011;32071;49.036;9.344;2023-02-25T18:36:20;5.90;;;3.83;;
46363;SDS011;32071;49.036;9.344;2023-02-25T18:38:49;5.10;;;3.93;;